Terminal Aerodrome Forecast
Issued by NWS

Home | Current Version | Previous Version | Text Only | Print | Product List | Glossary On
Versions: 1 2 3 4 5 6 7 8 9 10 11 12 13 14 15 16 17 18 19
000
FTUS46 KMFR 312300
TAFRBG
TAF
KRBG 312340Z 0100/0124 VRB02KT P6SM SCT035 BKN070
     FM010400 VRB03KT P6SM OVC020
     FM011000 00000KT 6SM BR SCT012 OVC020
     FM011700 35004KT P6SM BKN025=

USA.gov is the U.S. government's official web portal to all federal, state and local government web resources and services.